WetterOnline ( https://www.wetteronline.de )

Wetter aktuell Leck

Aktuelles Wetter: Leck (17m)

6-stündlich | Neueste Meldungen
Ortszeit Temperatur Wetter
Do, 14.11. 13:00 6.5° C leicht bewölkt
Do, 14.11. 7:00 4.0° C bewölkt
Do, 14.11. 1:00 6.2° C bewölkt
Mi, 13.11. 19:00 6.0° C bewölkt
Mi, 13.11. 13:00 4.3° C Sprühregen
Mi, 13.11. 7:00 1.4° C leicht bewölkt
Mi, 13.11. 1:00 2.1° C wolkenlos
Di, 12.11. 19:00 5.6° C bedeckt
Ortszeit Temperatur Wetter
Do, 14.11. 14:00 7.0° C wolkig
Do, 14.11. 13:50 7.0° C bewölkt
Do, 14.11. 13:40 6.9° C bewölkt
Do, 14.11. 13:30 6.5° C bedeckt
Do, 14.11. 13:20 6.5° C bedeckt
Do, 14.11. 13:10 6.7° C bewölkt
Do, 14.11. 13:00 6.5° C leicht bewölkt
Do, 14.11. 12:30 6.5° C leicht bewölkt
Do, 14.11. 12:00 6.4° C wolkenlos
Do, 14.11. 11:30 5.6° C wolkenlos
Do, 14.11. 11:00 4.6° C leicht bewölkt
Ortszeit Relative Feuchte Sichtweite
Do, 14.11. 13:00 83% 9 km
Do, 14.11. 7:00 97% 4.2 km
Do, 14.11. 1:00 92% 35 km
Mi, 13.11. 19:00 91% 8 km
Mi, 13.11. 13:00 87% 3.1 km
Mi, 13.11. 7:00 93% 8 km
Mi, 13.11. 1:00 93% 9 km
Di, 12.11. 19:00 82% 35 km
Ortszeit Relative Feuchte Sichtweite
Do, 14.11. 14:00 81% 7 km
Do, 14.11. 13:50 81% -
Do, 14.11. 13:40 82% -
Do, 14.11. 13:30 82% 19 km
Do, 14.11. 13:20 82% -
Do, 14.11. 13:10 83% -
Do, 14.11. 13:00 83% 9 km
Do, 14.11. 12:30 82% 8 km
Do, 14.11. 12:00 82% 9 km
Do, 14.11. 11:30 86% 3.3 km
Do, 14.11. 11:00 93% 3.6 km
Ortszeit Niederschlagsmenge Niederschlagsart
Do, 14.11. 13:00 0.0 l/m2 in 6 Std. -
Do, 14.11. 7:00 2 l/m2 in 12 Std. Regen
Do, 14.11. 1:00 2 l/m2 in 6 Std. Regen
Mi, 13.11. 19:00 1 l/m2 in 12 Std. Regen
Mi, 13.11. 13:00 0.1 l/m2 in 6 Std. Regen
Mi, 13.11. 7:00 0.1 l/m2 in 12 Std. -
Mi, 13.11. 1:00 0.1 l/m2 in 6 Std. Regen
Di, 12.11. 19:00 0.4 l/m2 in 12 Std. Regen
Ortszeit Niederschlagsmenge Niederschlagsart
Do, 14.11. 14:00 0.0 l/m2 in 1 Std. -
Do, 14.11. 13:50 keine Meldung -
Do, 14.11. 13:40 keine Meldung -
Do, 14.11. 13:30 0.0 l/m2 in 1 Std. -
Do, 14.11. 13:20 keine Meldung -
Do, 14.11. 13:10 keine Meldung -
Do, 14.11. 13:00 0.0 l/m2 in 1 Std. -
Do, 14.11. 12:30 0.0 l/m2 in 1 Std. -
Do, 14.11. 12:00 0.0 l/m2 in 1 Std. -
Do, 14.11. 11:30 0.0 l/m2 in 1 Std. -
Do, 14.11. 11:00 0.0 l/m2 in 1 Std. -
Ortszeit Stärke Spitze Richtung
km/h Bft. km/h Grad Sektor
Do, 14.11. 13:00 11 2 24 110° O
Do, 14.11. 7:00 14 3 22 170° S
Do, 14.11. 1:00 13 3 31 180° S
Mi, 13.11. 19:00 22 4 46 170° S
Mi, 13.11. 13:00 22 4 41 150° SO
Mi, 13.11. 7:00 14 3 25 120° SO
Mi, 13.11. 1:00 9 2 31 140° SO
Di, 12.11. 19:00 15 3 44 140° SO
Ortszeit Stärke Spitze Richtung
km/h Bft. km/h Grad Sektor
Do, 14.11. 14:00 14 3 18 120° SO
Do, 14.11. 13:50 14 3 - 120° SO
Do, 14.11. 13:40 14 3 - 110° O
Do, 14.11. 13:30 13 3 17 100° O
Do, 14.11. 13:20 13 3 - 100° O
Do, 14.11. 13:10 13 3 - 100° O
Do, 14.11. 13:00 11 2 15 110° O
Do, 14.11. 12:30 11 2 14 130° SO
Do, 14.11. 12:00 9 2 19 140° SO
Do, 14.11. 11:30 11 2 18 150° SO
Do, 14.11. 11:00 11 2 17 140° SO
Ortszeit Untergrenze Bedeckung Gattung
total tief tief mittel hoch
Do, 14.11. 13:00 7200 m 4/8 0/8 - - -
Do, 14.11. 7:00 120 m 7/8 7/8 - - -
Do, 14.11. 1:00 930 m 7/8 7/8 - - -
Mi, 13.11. 19:00 270 m 7/8 7/8 - - -
Mi, 13.11. 13:00 300 m 8/8 8/8 - - -
Mi, 13.11. 7:00 4800 m 4/8 4/8 - - -
Mi, 13.11. 1:00 - 0/8 0/8 - - -
Di, 12.11. 19:00 900 m 8/8 8/8 - - -
Ortszeit Bedeckungsgrad in Achtel und Wolkenuntergrenze
Do, 14.11. 14:00 7(6000m) 8(7500m) 8(8100m)
Do, 14.11. 13:50 7(6000m) 8(7500m) 8(8100m)
Do, 14.11. 13:40 6(6000m) 8(7800m)
Do, 14.11. 13:30 5(6000m) 8(6600m)
Do, 14.11. 13:20 5(6000m) 8(6600m)
Do, 14.11. 13:10 6(6300m) 7(7200m)
Do, 14.11. 13:00 4(7200m)
Do, 14.11. 12:30 3(7500m) 4(7800m)
Do, 14.11. 12:00 keine Wolken
Do, 14.11. 11:30 keine Wolken
Do, 14.11. 11:00 3(120m)
Ortszeit Luftdruck NN (hPa) Tendenz (hPa in 3 Std.)
Do, 14.11. 13:00 1008 + 1,5
Do, 14.11. 7:00 1003 + 1,7
Do, 14.11. 1:00 1000 + 1,4
Mi, 13.11. 19:00 997 + 1,5
Mi, 13.11. 13:00 996 - 1,0
Mi, 13.11. 7:00 997 - 0,7
Mi, 13.11. 1:00 999 - 0,1
Di, 12.11. 19:00 999 + 0,1
Ortszeit Luftdruck NN (hPa) Tendenz (hPa in 3 Std.)
Do, 14.11. 14:00 1008 + 0,6
Do, 14.11. 13:50 1008 keine Meldung
Do, 14.11. 13:40 1008 keine Meldung
Do, 14.11. 13:30 1008 + 0,9
Do, 14.11. 13:20 1008 keine Meldung
Do, 14.11. 13:10 1008 keine Meldung
Do, 14.11. 13:00 1008 + 1,5
Do, 14.11. 12:30 1008 + 2,0
Do, 14.11. 12:00 1008 + 2,4
Do, 14.11. 11:30 1008 + 2,7
Do, 14.11. 11:00 1007 + 3,2
Ortszeit Schneehöhe (cm)
Do, 14.11. 13:00 0
Do, 14.11. 7:00 0
Do, 14.11. 1:00 0
Mi, 13.11. 19:00 0
Mi, 13.11. 13:00 0
Mi, 13.11. 7:00 0
Mi, 13.11. 1:00 0
Di, 12.11. 19:00 0
Ortszeit Schneehöhe (cm)
Do, 14.11. 14:00 0
Do, 14.11. 13:50 0
Do, 14.11. 13:40 0
Do, 14.11. 13:30 0
Do, 14.11. 13:20 0
Do, 14.11. 13:10 0
Do, 14.11. 13:00 0
Do, 14.11. 12:30 0
Do, 14.11. 12:00 0
Do, 14.11. 11:30 0
Do, 14.11. 11:00 0
Link zu dieser Seite / Seite empfehlen

Das Wetter in ...